createdAt,value
2022-12-11T00:01:18.425Z,-2.20
2022-12-11T00:03:45.487Z,-2.20
2022-12-11T00:06:14.841Z,-2.20
2022-12-11T00:08:41.858Z,-2.10
2022-12-11T00:11:10.516Z,-2.20
2022-12-11T00:13:37.205Z,-2.10
2022-12-11T00:16:04.042Z,-2.20
2022-12-11T00:18:30.840Z,-2.20
2022-12-11T00:21:02.284Z,-2.30
2022-12-11T00:23:29.009Z,-2.30
2022-12-11T00:25:55.768Z,-2.30
2022-12-11T00:28:23.366Z,-2.40
2022-12-11T00:30:50.026Z,-2.50
2022-12-11T00:33:17.361Z,-2.60
2022-12-11T00:35:46.162Z,-2.60
2022-12-11T00:38:18.149Z,-2.70
2022-12-11T00:40:45.254Z,-2.80
2022-12-11T00:43:12.400Z,-2.90
2022-12-11T00:45:41.760Z,-2.90
2022-12-11T00:48:08.952Z,-2.80
2022-12-11T00:50:36.197Z,-2.80
2022-12-11T00:53:04.438Z,-2.60
2022-12-11T00:55:31.420Z,-2.50
2022-12-11T00:57:58.328Z,-2.40
2022-12-11T01:00:25.099Z,-2.40
2022-12-11T01:02:51.823Z,-2.20
2022-12-11T01:05:18.625Z,-2.20
2022-12-11T01:07:45.389Z,-2.20
2022-12-11T01:10:25.350Z,-2.20
2022-12-11T01:12:53.206Z,-2.20
2022-12-11T01:15:20.964Z,-2.40
2022-12-11T01:17:47.587Z,-2.50
2022-12-11T01:20:14.339Z,-2.60
2022-12-11T01:22:40.989Z,-2.60
2022-12-11T01:25:10.089Z,-2.80
2022-12-11T01:27:38.155Z,-2.80
2022-12-11T01:30:07.872Z,-2.90
2022-12-11T01:32:35.885Z,-2.90
2022-12-11T01:35:07.256Z,-3.00
2022-12-11T01:37:34.427Z,-3.00
2022-12-11T01:40:01.764Z,-3.00
2022-12-11T01:42:29.493Z,-3.10
2022-12-11T01:45:27.171Z,-3.10
2022-12-11T01:47:59.567Z,-3.10
2022-12-11T01:50:27.598Z,-3.20
2022-12-11T01:52:54.350Z,-3.20
2022-12-11T01:55:21.526Z,-3.20
2022-12-11T01:57:51.047Z,-3.30
2022-12-11T02:00:18.153Z,-3.30
2022-12-11T02:02:45.270Z,-3.30
2022-12-11T02:05:12.458Z,-3.30
2022-12-11T02:07:50.840Z,-3.30
2022-12-11T02:10:17.795Z,-3.40
2022-12-11T02:12:56.625Z,-3.50
2022-12-11T02:15:35.592Z,-3.60
2022-12-11T02:18:02.214Z,-3.70
2022-12-11T02:20:37.262Z,-3.70
2022-12-11T02:23:12.983Z,-3.80
2022-12-11T02:26:27.058Z,-3.80
2022-12-11T02:28:57.764Z,-3.80
2022-12-11T02:31:39.888Z,-3.80
2022-12-11T02:34:12.722Z,-3.80
2022-12-11T02:36:43.885Z,-3.80
2022-12-11T02:39:13.514Z,-3.80
2022-12-11T02:41:49.718Z,-3.80
2022-12-11T02:44:21.046Z,-3.70
2022-12-11T02:46:47.757Z,-3.70
2022-12-11T02:49:15.766Z,-3.60
2022-12-11T02:51:44.323Z,-3.50
2022-12-11T02:54:23.104Z,-3.40
2022-12-11T02:57:01.649Z,-3.30
2022-12-11T02:59:35.775Z,-3.20
2022-12-11T03:02:03.640Z,-3.00
2022-12-11T03:04:30.994Z,-2.90
2022-12-11T03:07:14.462Z,-2.90
2022-12-11T03:09:42.758Z,-2.80
2022-12-11T03:12:12.055Z,-2.70
2022-12-11T03:14:40.389Z,-2.70
2022-12-11T03:17:16.000Z,-2.60
2022-12-11T03:19:57.845Z,-2.50
2022-12-11T03:22:36.234Z,-2.40
2022-12-11T03:25:23.044Z,-2.30
2022-12-11T03:28:09.343Z,-2.30
2022-12-11T03:30:38.260Z,-2.20
2022-12-11T03:33:10.773Z,-2.10
2022-12-11T03:35:55.987Z,-2.10
2022-12-11T03:38:37.920Z,-2.00
2022-12-11T03:41:05.447Z,-2.00
2022-12-11T03:43:33.697Z,-1.90
2022-12-11T03:46:01.113Z,-1.90
2022-12-11T03:48:33.206Z,-1.80
2022-12-11T03:51:02.360Z,-1.70
2022-12-11T03:53:29.056Z,-1.70
2022-12-11T03:55:58.929Z,-1.70
2022-12-11T03:58:25.638Z,-1.70
2022-12-11T04:00:52.367Z,-1.70
2022-12-11T04:03:19.137Z,-1.60
2022-12-11T04:05:48.507Z,-1.60
2022-12-11T04:08:16.485Z,-1.60
2022-12-11T04:10:43.416Z,-1.60
2022-12-11T04:13:11.054Z,-1.60
2022-12-11T04:15:38.980Z,-1.50
2022-12-11T04:18:25.294Z,-1.50
2022-12-11T04:21:14.473Z,-1.50
2022-12-11T04:23:59.752Z,-1.40
2022-12-11T04:26:26.516Z,-1.40
2022-12-11T04:28:53.148Z,-1.40
2022-12-11T04:31:21.930Z,-1.40
2022-12-11T04:33:49.081Z,-1.40
2022-12-11T04:36:16.451Z,-1.40
2022-12-11T04:38:43.284Z,-1.40
2022-12-11T04:41:12.768Z,-1.30
2022-12-11T04:43:39.977Z,-1.30
2022-12-11T04:46:09.668Z,-1.30
2022-12-11T04:48:38.215Z,-1.20
2022-12-11T04:51:05.611Z,-1.20
2022-12-11T04:53:32.344Z,-1.30
2022-12-11T04:55:58.996Z,-1.30
2022-12-11T04:58:28.038Z,-1.30
2022-12-11T05:00:54.841Z,-1.20
2022-12-11T05:03:22.215Z,-1.30
2022-12-11T05:05:53.301Z,-1.30
2022-12-11T05:08:21.383Z,-1.30
2022-12-11T05:11:02.046Z,-1.30
2022-12-11T05:13:29.979Z,-1.40
2022-12-11T05:15:57.158Z,-1.40
2022-12-11T05:18:24.205Z,-1.40
2022-12-11T05:20:58.856Z,-1.30
2022-12-11T05:23:26.132Z,-1.30
2022-12-11T05:25:57.787Z,-1.20
2022-12-11T05:28:26.169Z,-1.30
2022-12-11T05:30:57.664Z,-1.30
2022-12-11T05:33:24.818Z,-1.30
2022-12-11T05:35:52.109Z,-1.40
2022-12-11T05:38:19.143Z,-1.50
2022-12-11T05:40:54.624Z,-1.60
2022-12-11T05:43:21.313Z,-1.80
2022-12-11T05:45:47.897Z,-1.90
2022-12-11T05:48:14.540Z,-2.00
2022-12-11T05:50:41.157Z,-2.10
2022-12-11T05:53:08.067Z,-2.20
2022-12-11T05:55:35.134Z,-2.10
2022-12-11T05:58:01.876Z,-2.20
2022-12-11T06:00:34.362Z,-2.20
2022-12-11T06:03:02.794Z,-2.20
2022-12-11T06:05:29.523Z,-2.40
2022-12-11T06:07:56.201Z,-2.50
2022-12-11T06:10:22.840Z,-2.60
2022-12-11T06:12:49.488Z,-2.70
2022-12-11T06:15:16.412Z,-2.80
2022-12-11T06:17:43.087Z,-2.90
2022-12-11T06:20:10.045Z,-3.00
2022-12-11T06:22:36.733Z,-3.10
2022-12-11T06:25:03.736Z,-3.10
2022-12-11T06:27:30.996Z,-3.20
2022-12-11T06:29:57.733Z,-3.10
2022-12-11T06:32:24.552Z,-3.10
2022-12-11T06:34:51.153Z,-3.10
2022-12-11T06:37:17.932Z,-3.10
2022-12-11T06:39:44.885Z,-3.10
2022-12-11T06:42:11.600Z,-3.00
2022-12-11T06:44:38.226Z,-2.90
2022-12-11T06:47:05.336Z,-2.80
2022-12-11T06:49:32.019Z,-2.70
2022-12-11T06:51:58.612Z,-2.70
2022-12-11T06:54:28.337Z,-2.70
2022-12-11T06:56:55.448Z,-2.70
2022-12-11T06:59:22.146Z,-2.70
2022-12-11T07:01:48.924Z,-2.70
2022-12-11T07:04:15.682Z,-2.70
2022-12-11T07:06:42.445Z,-2.80
2022-12-11T07:09:09.972Z,-2.80
2022-12-11T07:11:36.562Z,-2.60
2022-12-11T07:14:03.378Z,-2.70
2022-12-11T07:16:30.038Z,-2.60
2022-12-11T07:18:56.725Z,-2.60
2022-12-11T07:21:23.531Z,-2.60
2022-12-11T07:23:50.407Z,-2.50
2022-12-11T07:26:20.228Z,-2.30
2022-12-11T07:28:47.403Z,-2.20
2022-12-11T07:31:16.817Z,-2.10
2022-12-11T07:33:44.048Z,-2.00
2022-12-11T07:36:13.119Z,-2.00
2022-12-11T07:38:39.998Z,-1.90
2022-12-11T07:41:09.375Z,-1.90
2022-12-11T07:43:36.296Z,-1.80
2022-12-11T07:46:08.831Z,-1.70
2022-12-11T07:48:36.596Z,-1.60
2022-12-11T07:51:17.903Z,-1.50
2022-12-11T07:53:45.956Z,-1.40
2022-12-11T07:56:13.474Z,-1.30
2022-12-11T07:58:40.100Z,-1.30
2022-12-11T08:01:13.169Z,-1.30
2022-12-11T08:03:40.321Z,-1.30
2022-12-11T08:06:07.112Z,-1.40
2022-12-11T08:08:33.821Z,-1.40
2022-12-11T08:11:07.718Z,-1.30
2022-12-11T08:13:34.767Z,-1.30
2022-12-11T08:16:09.849Z,-1.30
2022-12-11T08:18:37.639Z,-1.40
2022-12-11T08:21:09.441Z,-1.40
2022-12-11T08:23:36.240Z,-1.50
2022-12-11T08:26:05.110Z,-1.50
2022-12-11T08:28:32.339Z,-1.60
2022-12-11T08:30:59.579Z,-1.80
2022-12-11T08:33:26.725Z,-1.70
2022-12-11T08:35:53.370Z,-1.70
2022-12-11T08:38:25.166Z,-1.70
2022-12-11T08:40:52.171Z,-1.80
2022-12-11T08:43:18.842Z,-1.80
2022-12-11T08:45:46.689Z,-1.90
2022-12-11T08:48:13.394Z,-1.90
2022-12-11T08:50:40.072Z,-2.00
2022-12-11T08:53:06.749Z,-2.00
2022-12-11T08:55:33.874Z,-1.90
2022-12-11T08:58:00.533Z,-1.80
2022-12-11T09:00:27.162Z,-1.80
2022-12-11T09:02:53.847Z,-1.70
2022-12-11T09:05:20.530Z,-1.60
2022-12-11T09:07:47.214Z,-1.60
2022-12-11T09:10:13.966Z,-1.60
2022-12-11T09:12:40.828Z,-1.50
2022-12-11T09:15:07.852Z,-1.50
2022-12-11T09:17:35.449Z,-1.40
2022-12-11T09:20:02.352Z,-1.30
2022-12-11T09:22:29.017Z,-1.20
2022-12-11T09:24:55.657Z,-1.10
2022-12-11T09:27:22.380Z,-1.20
2022-12-11T09:29:49.495Z,-1.10
2022-12-11T09:32:16.165Z,-1.10
2022-12-11T09:34:42.929Z,-1.20
2022-12-11T09:37:09.551Z,-1.30
2022-12-11T09:39:36.187Z,-1.10
2022-12-11T09:42:41.872Z,-1.10
2022-12-11T09:45:15.326Z,-1.00
2022-12-11T09:47:50.075Z,-0.90
2022-12-11T09:50:41.323Z,-0.80
2022-12-11T09:53:16.720Z,-0.70
2022-12-11T09:56:11.262Z,-0.60
2022-12-11T09:58:54.353Z,-0.30
2022-12-11T10:01:28.938Z,-0.30
2022-12-11T10:04:09.217Z,-0.20
2022-12-11T10:06:48.586Z,-0.10
2022-12-11T10:09:40.339Z,-0.10
2022-12-11T10:12:33.483Z,0.30
2022-12-11T10:15:16.646Z,0.20
2022-12-11T10:17:44.727Z,0.20
2022-12-11T10:20:39.315Z,0.30
2022-12-11T10:23:08.894Z,0.30
2022-12-11T10:25:44.628Z,0.70
2022-12-11T10:28:16.796Z,0.70
2022-12-11T10:31:14.648Z,0.70
2022-12-11T10:34:00.695Z,0.90
2022-12-11T10:36:36.946Z,1.10
2022-12-11T10:39:12.024Z,1.40
2022-12-11T10:41:41.813Z,1.60
2022-12-11T10:44:34.867Z,1.30
2022-12-11T10:47:14.542Z,1.60
2022-12-11T10:49:56.534Z,1.70
2022-12-11T10:52:35.730Z,1.70
2022-12-11T10:55:03.726Z,1.60
2022-12-11T10:57:33.952Z,1.50
2022-12-11T11:00:01.042Z,1.30
2022-12-11T11:02:38.824Z,1.70
2022-12-11T11:05:36.564Z,1.90
2022-12-11T11:08:23.736Z,1.80
2022-12-11T11:10:54.740Z,2.00
2022-12-11T11:13:24.302Z,2.10
2022-12-11T11:16:02.536Z,2.30
2022-12-11T11:18:30.717Z,2.00
2022-12-11T11:20:57.639Z,1.90
2022-12-11T11:23:25.315Z,2.00
2022-12-11T11:25:55.268Z,2.30
2022-12-11T11:28:34.036Z,2.10
2022-12-11T11:31:10.803Z,2.10
2022-12-11T11:33:45.222Z,1.60
2022-12-11T11:36:20.886Z,1.50
2022-12-11T11:38:58.742Z,1.50
2022-12-11T11:41:38.710Z,1.30
2022-12-11T11:44:10.311Z,1.20
2022-12-11T11:46:49.069Z,1.10
2022-12-11T11:49:45.783Z,1.00
2022-12-11T11:52:12.344Z,1.10
2022-12-11T11:55:05.994Z,1.30
2022-12-11T11:57:42.337Z,1.00
2022-12-11T12:00:28.858Z,0.90
2022-12-11T12:03:03.659Z,1.00
2022-12-11T12:05:43.104Z,1.00
2022-12-11T12:08:31.381Z,0.80
2022-12-11T12:11:39.026Z,1.00
2022-12-11T12:14:50.652Z,0.80
2022-12-11T12:17:08.975Z,1.00
2022-12-11T12:19:55.539Z,1.20
2022-12-11T12:22:40.950Z,1.10
2022-12-11T12:25:28.877Z,1.20
2022-12-11T12:28:19.994Z,1.10
2022-12-11T12:30:49.707Z,1.40
2022-12-11T12:33:27.545Z,1.30
2022-12-11T12:36:26.202Z,1.40
2022-12-11T12:39:16.719Z,1.40
2022-12-11T12:42:07.284Z,1.30
2022-12-11T12:44:53.095Z,1.30
2022-12-11T12:47:21.470Z,1.30
2022-12-11T12:49:54.334Z,1.20
2022-12-11T12:52:32.943Z,1.20
2022-12-11T12:55:17.666Z,1.20
2022-12-11T12:57:55.035Z,0.90
2022-12-11T13:00:38.451Z,1.10
2022-12-11T13:03:15.205Z,1.00
2022-12-11T13:06:00.032Z,1.00
2022-12-11T13:08:41.668Z,0.90
2022-12-11T13:11:12.009Z,1.10
2022-12-11T13:13:40.598Z,1.00
2022-12-11T13:16:16.372Z,1.10
2022-12-11T13:18:49.022Z,0.90
2022-12-11T13:21:38.144Z,1.00
2022-12-11T13:24:45.679Z,1.00
2022-12-11T13:27:25.694Z,0.80
2022-12-11T13:30:03.623Z,0.80
2022-12-11T13:32:31.227Z,0.80
2022-12-11T13:35:03.912Z,0.70
2022-12-11T13:37:41.292Z,0.80
2022-12-11T13:40:27.186Z,0.80
2022-12-11T13:42:58.588Z,0.70
2022-12-11T13:45:34.328Z,0.40
2022-12-11T13:48:01.570Z,0.50
2022-12-11T13:50:33.171Z,0.40
2022-12-11T13:53:01.690Z,0.40
2022-12-11T13:55:30.117Z,0.40
2022-12-11T13:57:57.093Z,0.40
2022-12-11T14:00:26.495Z,0.50
2022-12-11T14:02:56.126Z,0.40
2022-12-11T14:05:23.437Z,0.50
2022-12-11T14:07:56.726Z,0.50
2022-12-11T14:10:30.065Z,0.60
2022-12-11T14:13:05.417Z,0.60
2022-12-11T14:15:34.761Z,0.70
2022-12-11T14:18:01.969Z,0.60
2022-12-11T14:20:33.741Z,0.80
2022-12-11T14:23:21.806Z,0.60
2022-12-11T14:25:56.213Z,0.70
2022-12-11T14:28:27.459Z,0.60
2022-12-11T14:30:59.644Z,0.40
2022-12-11T14:33:32.760Z,0.40
2022-12-11T14:36:01.396Z,0.30
2022-12-11T14:38:38.171Z,0.20
2022-12-11T14:41:19.777Z,0.20
2022-12-11T14:43:51.230Z,0.20
2022-12-11T14:46:24.619Z,0.20
2022-12-11T14:49:01.200Z,0.00
2022-12-11T14:51:34.548Z,0.00
2022-12-11T14:54:02.625Z,-0.10
2022-12-11T14:56:30.260Z,-0.30
2022-12-11T14:59:02.070Z,-0.30
2022-12-11T15:01:34.507Z,-0.30
2022-12-11T15:04:16.322Z,-0.40
2022-12-11T15:06:45.425Z,-0.50
2022-12-11T15:09:40.522Z,-0.60
2022-12-11T15:12:13.406Z,-0.60
2022-12-11T15:15:05.442Z,-0.70
2022-12-11T15:17:34.557Z,-0.70
2022-12-11T15:20:11.649Z,-0.70
2022-12-11T15:22:43.241Z,-0.70
2022-12-11T15:25:25.524Z,-0.70
2022-12-11T15:27:54.677Z,-0.70
2022-12-11T15:30:26.945Z,-0.60
2022-12-11T15:33:10.061Z,-0.70
2022-12-11T15:35:38.614Z,-0.80
2022-12-11T15:38:05.624Z,-0.70
2022-12-11T15:40:32.503Z,-0.80
2022-12-11T15:43:02.142Z,-0.80
2022-12-11T15:45:29.158Z,-0.70
2022-12-11T15:47:56.402Z,-0.70
2022-12-11T15:50:25.059Z,-0.70
2022-12-11T15:52:53.434Z,-0.70
2022-12-11T15:55:22.392Z,-0.80
2022-12-11T15:57:55.749Z,-0.80
2022-12-11T16:00:23.979Z,-0.80
2022-12-11T16:02:51.574Z,-0.80
2022-12-11T16:05:18.373Z,-0.80
2022-12-11T16:07:45.098Z,-0.80
2022-12-11T16:10:18.660Z,-0.90
2022-12-11T16:12:46.831Z,-0.90
2022-12-11T16:15:21.409Z,-0.90
2022-12-11T16:17:49.666Z,-1.00
2022-12-11T16:20:16.369Z,-1.20
2022-12-11T16:22:43.055Z,-1.10
2022-12-11T16:25:10.096Z,-1.00
2022-12-11T16:27:37.065Z,-1.00
2022-12-11T16:30:05.029Z,-1.10
2022-12-11T16:32:31.710Z,-1.00
2022-12-11T16:35:00.733Z,-1.00
2022-12-11T16:37:27.609Z,-0.90
2022-12-11T16:39:54.373Z,-0.90
2022-12-11T16:42:21.035Z,-0.90
2022-12-11T16:44:48.156Z,-0.90
2022-12-11T16:47:14.859Z,-0.90
2022-12-11T16:49:43.052Z,-0.80
2022-12-11T16:52:09.697Z,-0.70
2022-12-11T16:54:36.398Z,-0.70
2022-12-11T16:57:03.492Z,-0.80
2022-12-11T16:59:36.594Z,-1.00
2022-12-11T17:02:04.207Z,-1.00
2022-12-11T17:04:30.895Z,-1.00
2022-12-11T17:06:57.632Z,-1.00
2022-12-11T17:09:24.310Z,-0.80
2022-12-11T17:11:50.987Z,-0.80
2022-12-11T17:14:17.600Z,-0.90
2022-12-11T17:16:44.294Z,-0.80
2022-12-11T17:19:11.048Z,-0.90
2022-12-11T17:21:37.682Z,-0.90
2022-12-11T17:24:04.638Z,-0.80
2022-12-11T17:26:31.553Z,-0.80
2022-12-11T17:28:58.251Z,-0.80
2022-12-11T17:31:25.109Z,-1.00
2022-12-11T17:33:53.844Z,-0.90
2022-12-11T17:36:21.900Z,-1.00
2022-12-11T17:38:49.875Z,-1.00
2022-12-11T17:41:20.671Z,-1.10
2022-12-11T17:43:52.495Z,-1.10
2022-12-11T17:46:20.330Z,-1.00
2022-12-11T17:48:47.874Z,-1.10
2022-12-11T17:51:21.030Z,-1.20
2022-12-11T17:53:48.013Z,-1.20
2022-12-11T17:56:14.812Z,-1.20
2022-12-11T17:58:41.861Z,-1.10
2022-12-11T18:01:10.723Z,-1.30
2022-12-11T18:03:38.169Z,-1.20
2022-12-11T18:06:07.883Z,-1.30
2022-12-11T18:08:34.845Z,-1.20
2022-12-11T18:11:10.139Z,-1.20
2022-12-11T18:13:36.856Z,-1.10
2022-12-11T18:16:10.287Z,-1.00
2022-12-11T18:18:37.079Z,-1.00
2022-12-11T18:21:04.397Z,-1.10
2022-12-11T18:23:31.819Z,-1.30
2022-12-11T18:25:58.469Z,-1.20
2022-12-11T18:28:25.225Z,-1.10
2022-12-11T18:30:51.937Z,-1.00
2022-12-11T18:33:18.762Z,-1.20
2022-12-11T18:35:45.440Z,-1.10
2022-12-11T18:38:12.580Z,-1.10
2022-12-11T18:40:39.220Z,-1.10
2022-12-11T18:43:05.891Z,-1.20
2022-12-11T18:45:32.579Z,-1.10
2022-12-11T18:47:59.442Z,-1.20
2022-12-11T18:50:26.524Z,-1.30
2022-12-11T18:52:56.969Z,-1.40
2022-12-11T18:55:23.889Z,-1.40
2022-12-11T18:57:50.584Z,-1.50
2022-12-11T19:00:18.297Z,-1.70
2022-12-11T19:02:45.371Z,-1.80
2022-12-11T19:05:12.610Z,-1.90
2022-12-11T19:07:39.561Z,-2.00
2022-12-11T19:10:06.735Z,-2.10
2022-12-11T19:12:34.168Z,-2.20
2022-12-11T19:15:00.946Z,-2.30
2022-12-11T19:17:27.702Z,-2.40
2022-12-11T19:19:54.418Z,-2.50
2022-12-11T19:22:21.245Z,-2.60
2022-12-11T19:24:47.919Z,-2.70
2022-12-11T19:27:14.620Z,-2.70
2022-12-11T19:29:41.345Z,-2.80
2022-12-11T19:32:08.215Z,-2.90
2022-12-11T19:34:34.982Z,-2.90
2022-12-11T19:37:01.687Z,-3.00
2022-12-11T19:39:28.397Z,-3.00
2022-12-11T19:41:55.192Z,-3.00
2022-12-11T19:44:21.902Z,-2.90
2022-12-11T19:46:48.754Z,-2.80
2022-12-11T19:49:16.284Z,-2.80
2022-12-11T19:51:43.441Z,-2.80
2022-12-11T19:54:13.564Z,-2.80
2022-12-11T19:56:40.644Z,-2.80
2022-12-11T19:59:10.652Z,-2.80
2022-12-11T20:01:38.208Z,-2.80
2022-12-11T20:04:08.306Z,-2.80
2022-12-11T20:06:37.257Z,-2.80
2022-12-11T20:09:05.919Z,-2.80
2022-12-11T20:11:33.787Z,-2.80
2022-12-11T20:14:00.766Z,-2.70
2022-12-11T20:16:46.285Z,-2.70
2022-12-11T20:19:14.406Z,-2.70
2022-12-11T20:21:42.233Z,-2.60
2022-12-11T20:24:09.952Z,-2.60
2022-12-11T20:26:38.117Z,-2.60
2022-12-11T20:29:08.080Z,-2.50
2022-12-11T20:31:36.144Z,-2.50
2022-12-11T20:34:04.040Z,-2.40
2022-12-11T20:36:31.238Z,-2.40
2022-12-11T20:38:57.949Z,-2.30
2022-12-11T20:41:25.445Z,-2.30
2022-12-11T20:43:55.475Z,-2.30
2022-12-11T20:46:27.569Z,-2.30
2022-12-11T20:48:56.251Z,-2.30
2022-12-11T20:51:26.298Z,-2.40
2022-12-11T20:54:01.182Z,-2.30
2022-12-11T20:56:30.002Z,-2.30
2022-12-11T20:58:58.045Z,-2.40
2022-12-11T21:01:28.071Z,-2.50
2022-12-11T21:03:54.842Z,-2.40
2022-12-11T21:06:32.790Z,-2.50
2022-12-11T21:09:01.586Z,-2.50
2022-12-11T21:11:28.920Z,-2.40
2022-12-11T21:13:55.624Z,-2.30
2022-12-11T21:16:23.148Z,-2.20
2022-12-11T21:18:50.283Z,-2.20
2022-12-11T21:21:17.559Z,-2.20
2022-12-11T21:23:44.909Z,-2.10
2022-12-11T21:26:12.035Z,-2.10
2022-12-11T21:28:39.031Z,-2.10
2022-12-11T21:31:08.685Z,-2.10
2022-12-11T21:33:35.739Z,-1.90
2022-12-11T21:36:02.808Z,-1.90
2022-12-11T21:38:29.766Z,-1.90
2022-12-11T21:40:57.078Z,-1.90
2022-12-11T21:43:24.721Z,-1.80
2022-12-11T21:46:01.032Z,-1.70
2022-12-11T21:48:29.043Z,-1.80
2022-12-11T21:51:03.552Z,-1.80
2022-12-11T21:53:30.227Z,-1.70
2022-12-11T21:55:56.947Z,-1.60
2022-12-11T21:58:23.684Z,-1.50
2022-12-11T22:00:50.436Z,-1.50
2022-12-11T22:03:17.109Z,-1.40
2022-12-11T22:05:43.783Z,-1.40
2022-12-11T22:08:10.516Z,-1.50
2022-12-11T22:10:37.264Z,-1.50
2022-12-11T22:13:03.936Z,-1.40
2022-12-11T22:15:30.632Z,-1.40
2022-12-11T22:17:57.409Z,-1.30
2022-12-11T22:20:24.096Z,-1.20
2022-12-11T22:22:50.854Z,-1.30
2022-12-11T22:25:17.646Z,-1.30
2022-12-11T22:27:44.330Z,-1.20
2022-12-11T22:30:11.803Z,-1.10
2022-12-11T22:32:38.766Z,-1.20
2022-12-11T22:35:05.869Z,-1.20
2022-12-11T22:37:32.656Z,-1.30
2022-12-11T22:52:04.346Z,-1.50
2022-12-11T22:54:31.014Z,-1.60
2022-12-11T22:56:57.695Z,-1.60
2022-12-11T22:59:24.405Z,-1.60
2022-12-11T23:01:51.161Z,-1.60
2022-12-11T23:04:17.818Z,-1.60
2022-12-11T23:06:44.511Z,-1.50
2022-12-11T23:09:11.834Z,-1.50
2022-12-11T23:11:39.294Z,-1.50
2022-12-11T23:14:08.553Z,-1.50
2022-12-11T23:16:35.276Z,-1.50
2022-12-11T23:19:02.037Z,-1.60
2022-12-11T23:21:29.028Z,-1.50
2022-12-11T23:23:56.804Z,-1.60
2022-12-11T23:26:24.501Z,-1.60
2022-12-11T23:28:51.270Z,-1.60
2022-12-11T23:31:18.271Z,-1.60
2022-12-11T23:33:45.122Z,-1.70
2022-12-11T23:36:12.672Z,-1.70
2022-12-11T23:38:39.988Z,-1.70
2022-12-11T23:41:09.309Z,-1.80
2022-12-11T23:43:37.168Z,-1.70
2022-12-11T23:46:07.246Z,-1.70
2022-12-11T23:48:34.147Z,-1.70
2022-12-11T23:51:02.145Z,-1.60
2022-12-11T23:53:29.072Z,-1.60
2022-12-11T23:55:55.849Z,-1.60
2022-12-11T23:58:22.650Z,-1.70
